Time;durP1;ratioP1;P1;durP2;ratioP2;P2;SDS_P1;SDS_P2;PMS_P1;PMS_P2;Temp;Humidity;BMP_temperature;BMP_pressure;BME280_temperature;BME280_humidity;BME280_pressure;Samples;Min_cycle;Max_cycle;Signal;HPM_P1;HPM_P2
2022/05/09 00:02:18;;;;;;;;;;;17.90;65.80;;;;;;5055561;28;19928;-77
2022/05/09 00:04:44;;;;;;;;;;;17.80;65.80;;;;;;5057496;28;19935;-79
2022/05/09 00:07:12;;;;;;;;;;;17.80;65.90;;;;;;5054907;28;19932;-78
2022/05/09 00:09:39;;;;;;;;;;;17.80;66.10;;;;;;5057723;28;19928;-78
2022/05/09 00:12:06;;;;;;;;;;;17.70;66.20;;;;;;5053234;28;19936;-78
2022/05/09 00:14:33;;;;;;;;;;;17.70;66.20;;;;;;5052878;28;19936;-78
2022/05/09 00:16:59;;;;;;;;;;;17.60;66.30;;;;;;5054279;28;19931;-78
2022/05/09 00:19:26;;;;;;;;;;;17.60;66.40;;;;;;5054091;28;19952;-78
2022/05/09 00:21:53;;;;;;;;;;;17.60;66.50;;;;;;5054740;28;19929;-78
2022/05/09 00:24:21;;;;;;;;;;;17.50;66.60;;;;;;5058139;28;19933;-80
2022/05/09 00:26:49;;;;;;;;;;;17.50;66.70;;;;;;5056746;28;19932;-78
2022/05/09 00:29:16;;;;;;;;;;;17.40;66.80;;;;;;5049619;28;19936;-78
2022/05/09 00:31:44;;;;;;;;;;;17.50;67.00;;;;;;5047868;28;19936;-78
2022/05/09 00:34:11;;;;;;;;;;;17.40;67.00;;;;;;5056834;28;19975;-80
2022/05/09 00:36:38;;;;;;;;;;;17.40;67.10;;;;;;5055838;28;20595;-77
2022/05/09 00:39:05;;;;;;;;;;;17.30;67.10;;;;;;5051389;28;19932;-77
2022/05/09 00:41:37;;;;;;;;;;;17.30;67.20;;;;;;5057979;28;19935;-78
2022/05/09 00:44:05;;;;;;;;;;;17.20;67.20;;;;;;5055234;28;20297;-78
2022/05/09 00:46:32;;;;;;;;;;;17.20;67.30;;;;;;5057945;28;19936;-78
2022/05/09 00:49:03;;;;;;;;;;;17.20;67.40;;;;;;5055067;28;19929;-78
2022/05/09 00:51:30;;;;;;;;;;;17.20;67.50;;;;;;5058311;28;20001;-78
2022/05/09 00:53:57;;;;;;;;;;;17.10;67.60;;;;;;5051903;28;20270;-77
2022/05/09 00:56:26;;;;;;;;;;;17.10;67.70;;;;;;5056319;28;19940;-78
2022/05/09 00:58:55;;;;;;;;;;;17.00;67.70;;;;;;5054097;28;20389;-77
2022/05/09 01:01:22;;;;;;;;;;;17.00;67.90;;;;;;5053973;28;19928;-78
2022/05/09 01:03:51;;;;;;;;;;;17.00;68.10;;;;;;5056339;28;19935;-77
2022/05/09 01:06:17;;;;;;;;;;;17.00;68.10;;;;;;5052807;28;19936;-77
2022/05/09 01:08:44;;;;;;;;;;;16.90;68.90;;;;;;5053946;28;19932;-78
2022/05/09 01:11:12;;;;;;;;;;;16.90;68.20;;;;;;5050755;28;19932;-78
2022/05/09 01:13:42;;;;;;;;;;;16.80;68.30;;;;;;5052725;28;19940;-78
2022/05/09 01:16:10;;;;;;;;;;;16.80;68.40;;;;;;5057849;28;19934;-78
2022/05/09 01:18:37;;;;;;;;;;;16.80;68.50;;;;;;5055931;28;19935;-78
2022/05/09 01:21:28;;;;;;;;;;;16.80;68.60;;;;;;5056771;28;19939;-78
2022/05/09 01:23:55;;;;;;;;;;;16.70;68.70;;;;;;5054139;28;19940;-79
2022/05/09 01:26:21;;;;;;;;;;;16.70;68.70;;;;;;5057420;28;20403;-78
2022/05/09 01:28:48;;;;;;;;;;;16.60;68.70;;;;;;5054286;28;19939;-79
2022/05/09 01:31:17;;;;;;;;;;;16.60;68.80;;;;;;5053872;28;20009;-78
2022/05/09 01:33:46;;;;;;;;;;;16.60;68.90;;;;;;5049178;28;20383;-78
2022/05/09 01:36:15;;;;;;;;;;;16.50;69.00;;;;;;5054924;28;20339;-78
2022/05/09 01:38:45;;;;;;;;;;;16.50;69.10;;;;;;5050449;28;20393;-76
2022/05/09 01:41:11;;;;;;;;;;;16.50;69.20;;;;;;5054185;28;20012;-77
2022/05/09 01:43:39;;;;;;;;;;;16.50;69.20;;;;;;5054676;28;19924;-78
2022/05/09 01:46:07;;;;;;;;;;;16.40;69.20;;;;;;5052146;28;19925;-77
2022/05/09 01:51:19;;;;;;;;;;;16.40;69.30;;;;;;5053844;28;19931;-78
2022/05/09 01:53:49;;;;;;;;;;;16.30;69.40;;;;;;5056861;28;19932;-77
2022/05/09 01:56:16;;;;;;;;;;;16.30;69.50;;;;;;5059222;28;19928;-78
2022/05/09 01:58:44;;;;;;;;;;;16.30;69.60;;;;;;5056558;28;21260;-78
2022/05/09 02:01:11;;;;;;;;;;;16.30;69.60;;;;;;5057930;28;19928;-78
2022/05/09 02:03:38;;;;;;;;;;;16.20;69.60;;;;;;5058283;28;19951;-78
2022/05/09 02:06:04;;;;;;;;;;;16.20;69.70;;;;;;5061942;28;19935;-79
2022/05/09 02:08:32;;;;;;;;;;;16.10;69.70;;;;;;5058678;28;20307;-77
2022/05/09 02:10:59;;;;;;;;;;;16.10;69.80;;;;;;5055055;28;19932;-78
2022/05/09 02:13:25;;;;;;;;;;;16.10;69.90;;;;;;5058770;28;19929;-78
2022/05/09 02:15:52;;;;;;;;;;;16.00;70.00;;;;;;5055288;28;19951;-77
2022/05/09 02:18:18;;;;;;;;;;;16.10;70.90;;;;;;5058988;28;20171;-77
2022/05/09 02:20:46;;;;;;;;;;;16.00;70.20;;;;;;5053725;28;19929;-78
2022/05/09 02:23:13;;;;;;;;;;;16.00;70.40;;;;;;5054073;28;20037;-78
2022/05/09 02:25:42;;;;;;;;;;;16.00;70.50;;;;;;5053390;28;19935;-77
2022/05/09 02:28:09;;;;;;;;;;;15.90;70.60;;;;;;5061355;28;19925;-77
2022/05/09 02:30:38;;;;;;;;;;;15.90;70.70;;;;;;5061882;28;20029;-77
2022/05/09 02:33:04;;;;;;;;;;;15.90;70.80;;;;;;5058183;28;20389;-77
2022/05/09 02:35:31;;;;;;;;;;;15.80;70.80;;;;;;5058165;28;19933;-77
2022/05/09 02:37:58;;;;;;;;;;;15.80;71.00;;;;;;5052486;28;19933;-78
2022/05/09 02:40:24;;;;;;;;;;;15.80;71.00;;;;;;5053828;28;19928;-79
2022/05/09 02:42:53;;;;;;;;;;;15.80;71.10;;;;;;5055077;28;19936;-78
2022/05/09 02:45:20;;;;;;;;;;;15.70;71.20;;;;;;5060006;28;20027;-77
2022/05/09 02:47:47;;;;;;;;;;;15.70;71.30;;;;;;5055703;28;19928;-77
2022/05/09 02:50:14;;;;;;;;;;;15.70;71.40;;;;;;5055253;28;19935;-79
2022/05/09 02:52:42;;;;;;;;;;;15.60;71.40;;;;;;5056908;28;20385;-78
2022/05/09 02:55:09;;;;;;;;;;;15.70;71.60;;;;;;5053532;28;19932;-78
2022/05/09 02:57:37;;;;;;;;;;;15.60;71.60;;;;;;5054236;28;19924;-77
2022/05/09 03:00:06;;;;;;;;;;;15.60;71.70;;;;;;5054852;28;20410;-77
2022/05/09 03:02:33;;;;;;;;;;;15.50;71.70;;;;;;5056889;28;19990;-77
2022/05/09 03:04:58;;;;;;;;;;;15.50;71.70;;;;;;5055410;28;19936;-78
2022/05/09 03:07:25;;;;;;;;;;;15.50;71.80;;;;;;5057283;28;19939;-77
2022/05/09 03:09:51;;;;;;;;;;;15.40;71.90;;;;;;5051803;28;19952;-78
2022/05/09 03:12:19;;;;;;;;;;;15.40;72.00;;;;;;5057287;28;20406;-78
2022/05/09 03:14:46;;;;;;;;;;;15.40;72.10;;;;;;5059048;28;19936;-77
2022/05/09 03:17:14;;;;;;;;;;;15.40;72.20;;;;;;5056017;28;19936;-78
2022/05/09 03:19:41;;;;;;;;;;;15.40;72.30;;;;;;5055865;28;20295;-77
2022/05/09 03:22:08;;;;;;;;;;;15.30;72.30;;;;;;5057334;28;19947;-77
2022/05/09 03:24:35;;;;;;;;;;;15.30;72.40;;;;;;5052085;28;20071;-77
2022/05/09 03:27:03;;;;;;;;;;;15.20;72.40;;;;;;5054466;28;19935;-80
2022/05/09 03:29:30;;;;;;;;;;;15.30;72.50;;;;;;5053493;28;19940;-77
2022/05/09 03:31:57;;;;;;;;;;;15.30;72.60;;;;;;5056983;28;20258;-78
2022/05/09 03:34:25;;;;;;;;;;;15.20;72.50;;;;;;5057659;28;19935;-77
2022/05/09 03:36:52;;;;;;;;;;;15.20;72.60;;;;;;5057255;28;19928;-78
2022/05/09 03:39:18;;;;;;;;;;;15.20;72.70;;;;;;5051141;28;19925;-77
2022/05/09 03:41:45;;;;;;;;;;;15.10;72.70;;;;;;5053562;28;19928;-78
2022/05/09 03:44:11;;;;;;;;;;;15.10;72.80;;;;;;5052752;28;19933;-77
2022/05/09 03:46:38;;;;;;;;;;;15.10;72.80;;;;;;5052944;28;19939;-78
2022/05/09 03:49:04;;;;;;;;;;;15.10;72.90;;;;;;5053668;28;19936;-77
2022/05/09 03:51:32;;;;;;;;;;;15.00;72.90;;;;;;5049012;28;20531;-78
2022/05/09 03:53:59;;;;;;;;;;;15.00;73.00;;;;;;5050582;28;19940;-76
2022/05/09 03:56:25;;;;;;;;;;;15.00;73.00;;;;;;5053293;28;19929;-77
2022/05/09 03:58:52;;;;;;;;;;;15.00;73.10;;;;;;5056010;28;19936;-77
2022/05/09 04:01:19;;;;;;;;;;;15.00;73.20;;;;;;5053871;28;19928;-77
2022/05/09 04:03:46;;;;;;;;;;;15.00;73.20;;;;;;5058746;28;19935;-78
2022/05/09 04:06:13;;;;;;;;;;;14.90;73.20;;;;;;5054824;28;20471;-78
2022/05/09 04:08:41;;;;;;;;;;;14.80;73.10;;;;;;5055931;28;19928;-77
2022/05/09 04:11:07;;;;;;;;;;;14.80;73.20;;;;;;5048704;28;20154;-77
2022/05/09 04:13:34;;;;;;;;;;;14.80;73.30;;;;;;5051875;28;19960;-77
2022/05/09 04:18:45;;;;;;;;;;;14.80;73.40;;;;;;5052184;28;20052;-77
2022/05/09 04:21:12;;;;;;;;;;;14.70;73.40;;;;;;5054987;28;19928;-76
2022/05/09 04:23:39;;;;;;;;;;;14.70;73.40;;;;;;5053674;28;19932;-77
2022/05/09 04:26:07;;;;;;;;;;;14.70;73.50;;;;;;5054109;28;20035;-77
2022/05/09 04:28:34;;;;;;;;;;;14.70;73.50;;;;;;5053989;28;19933;-79
2022/05/09 04:31:00;;;;;;;;;;;14.60;73.50;;;;;;5046249;28;19940;-77
2022/05/09 04:33:27;;;;;;;;;;;14.70;73.70;;;;;;5054213;28;19936;-77
2022/05/09 04:35:54;;;;;;;;;;;14.60;73.70;;;;;;5053179;28;19929;-77
2022/05/09 04:38:22;;;;;;;;;;;14.60;73.80;;;;;;5051673;28;19968;-76
2022/05/09 04:40:51;;;;;;;;;;;14.50;73.70;;;;;;5049888;28;19986;-77
2022/05/09 04:43:20;;;;;;;;;;;14.60;73.90;;;;;;5053093;28;19939;-77
2022/05/09 04:45:48;;;;;;;;;;;14.50;74.70;;;;;;5048887;28;20400;-77
2022/05/09 04:48:15;;;;;;;;;;;14.50;74.00;;;;;;5054452;28;20285;-77
2022/05/09 04:50:41;;;;;;;;;;;14.50;74.00;;;;;;5050426;28;19940;-76
2022/05/09 04:53:08;;;;;;;;;;;14.50;74.10;;;;;;5052919;28;19935;-78
2022/05/09 04:55:34;;;;;;;;;;;14.50;74.20;;;;;;5053394;28;19940;-77
2022/05/09 04:58:01;;;;;;;;;;;14.50;74.30;;;;;;5050823;28;19932;-78
2022/05/09 05:00:29;;;;;;;;;;;14.50;74.40;;;;;;5050750;28;19929;-77
2022/05/09 05:02:56;;;;;;;;;;;14.20;89.20;;;;;;5051941;28;19942;-76
2022/05/09 05:05:24;;;;;;;;;;;14.10;86.90;;;;;;5054093;28;19928;-77
2022/05/09 05:07:51;;;;;;;;;;;14.10;88.40;;;;;;5051633;28;19925;-78
2022/05/09 05:10:18;;;;;;;;;;;14.00;77.70;;;;;;5049942;28;19929;-77
2022/05/09 05:12:45;;;;;;;;;;;14.00;78.30;;;;;;5052779;28;19929;-76
2022/05/09 05:15:12;;;;;;;;;;;14.00;78.30;;;;;;5051644;28;19929;-76
2022/05/09 05:17:40;;;;;;;;;;;14.00;78.20;;;;;;5057400;28;19932;-76
2022/05/09 05:20:09;;;;;;;;;;;14.00;77.50;;;;;;5061504;28;19924;-76
2022/05/09 05:22:37;;;;;;;;;;;14.00;78.00;;;;;;5053734;28;20055;-76
2022/05/09 05:25:03;;;;;;;;;;;14.00;77.90;;;;;;5056967;28;20814;-77
2022/05/09 05:27:30;;;;;;;;;;;14.00;77.70;;;;;;5061979;28;19925;-77
2022/05/09 05:29:58;;;;;;;;;;;14.10;77.10;;;;;;5062157;28;19931;-77
2022/05/09 05:32:25;;;;;;;;;;;14.00;77.60;;;;;;5061779;28;19928;-77
2022/05/09 05:34:53;;;;;;;;;;;14.10;77.60;;;;;;5059710;28;19933;-76
2022/05/09 05:37:20;;;;;;;;;;;14.00;77.40;;;;;;5051335;28;19932;-77
2022/05/09 05:39:47;;;;;;;;;;;14.10;76.90;;;;;;5061793;28;19928;-76
2022/05/09 05:42:14;;;;;;;;;;;14.00;77.40;;;;;;5056014;28;19929;-78
2022/05/09 05:44:41;;;;;;;;;;;14.10;80.50;;;;;;5065018;28;20389;-76
2022/05/09 05:47:08;;;;;;;;;;;;;;;;;;5060016;28;20418;-76
2022/05/09 05:49:35;;;;;;;;;;;;;;;;;;5056707;28;19928;-76
2022/05/09 05:52:03;;;;;;;;;;;14.30;84.20;;;;;;5060897;28;19950;-76
2022/05/09 05:54:30;;;;;;;;;;;14.20;85.00;;;;;;5065210;28;19925;-77
2022/05/09 05:56:57;;;;;;;;;;;14.50;78.00;;;;;;5056837;28;19937;-77
2022/05/09 05:59:25;;;;;;;;;;;;;;;;;;5060333;28;20795;-76
2022/05/09 06:01:52;;;;;;;;;;;14.20;91.40;;;;;;5057280;28;19966;-76
2022/05/09 06:04:19;;;;;;;;;;;;;;;;;;5060482;28;19987;-76
2022/05/09 06:06:46;;;;;;;;;;;;;;;;;;5061058;28;19972;-76
2022/05/09 06:09:13;;;;;;;;;;;14.20;76.70;;;;;;5059012;28;19996;-77
2022/05/09 06:11:40;;;;;;;;;;;14.20;90.90;;;;;;5055299;28;19933;-77
2022/05/09 06:14:07;;;;;;;;;;;14.50;87.20;;;;;;5059864;28;20047;-78
2022/05/09 06:16:34;;;;;;;;;;;14.20;85.40;;;;;;5057417;28;19937;-76
2022/05/09 06:19:01;;;;;;;;;;;14.20;78.90;;;;;;5058217;28;19982;-76
2022/05/09 06:21:27;;;;;;;;;;;14.20;78.50;;;;;;5055248;28;19974;-76
2022/05/09 06:23:54;;;;;;;;;;;;;;;;;;5057159;28;20434;-77
2022/05/09 06:26:22;;;;;;;;;;;14.20;87.30;;;;;;5058277;28;19932;-74
2022/05/09 06:28:49;;;;;;;;;;;14.10;82.90;;;;;;5055028;28;19928;-77
2022/05/09 06:31:15;;;;;;;;;;;14.20;78.20;;;;;;5057042;28;19929;-75
2022/05/09 06:33:42;;;;;;;;;;;14.90;80.70;;;;;;5056532;28;19933;-77
2022/05/09 06:36:08;;;;;;;;;;;14.60;81.30;;;;;;5059390;28;19936;-77
2022/05/09 06:38:35;;;;;;;;;;;14.30;86.60;;;;;;5055601;28;19928;-77
2022/05/09 06:41:02;;;;;;;;;;;14.30;78.30;;;;;;5062016;28;19935;-76
2022/05/09 06:43:30;;;;;;;;;;;14.10;80.30;;;;;;5057253;28;19932;-76
2022/05/09 06:45:57;;;;;;;;;;;14.70;82.80;;;;;;5057978;28;19972;-77
2022/05/09 06:48:24;;;;;;;;;;;14.30;85.70;;;;;;5054940;28;19936;-76
2022/05/09 06:50:50;;;;;;;;;;;14.30;78.80;;;;;;5059157;28;19932;-76
2022/05/09 06:53:17;;;;;;;;;;;14.30;79.30;;;;;;5054240;28;19928;-76
2022/05/09 06:55:44;;;;;;;;;;;14.40;89.90;;;;;;5056017;28;19966;-77
2022/05/09 06:58:12;;;;;;;;;;;14.40;87.80;;;;;;5055982;28;19936;-77
2022/05/09 07:00:40;;;;;;;;;;;14.40;91.40;;;;;;5056557;28;19962;-76
2022/05/09 07:03:07;;;;;;;;;;;14.50;89.20;;;;;;5059428;28;19929;-77
2022/05/09 07:05:34;;;;;;;;;;;14.40;91.50;;;;;;5064263;28;19951;-77
2022/05/09 07:08:01;;;;;;;;;;;14.80;83.40;;;;;;5054237;28;20320;-76
2022/05/09 07:10:28;;;;;;;;;;;14.50;78.80;;;;;;5057231;28;19928;-76
2022/05/09 07:12:55;;;;;;;;;;;;;;;;;;5059985;28;20010;-78
2022/05/09 07:15:23;;;;;;;;;;;14.60;79.70;;;;;;5061202;28;19932;-77
2022/05/09 07:17:51;;;;;;;;;;;13.90;78.80;;;;;;5060699;28;19929;-77
2022/05/09 07:20:18;;;;;;;;;;;14.60;92.00;;;;;;5056427;28;20426;-77
2022/05/09 07:22:45;;;;;;;;;;;;;;;;;;5057678;28;19940;-76
2022/05/09 07:25:13;;;;;;;;;;;14.70;88.90;;;;;;5060428;28;19932;-78
2022/05/09 07:27:42;;;;;;;;;;;14.70;88.20;;;;;;5057235;28;20404;-77
2022/05/09 07:30:10;;;;;;;;;;;14.70;87.70;;;;;;5054831;28;20413;-76
2022/05/09 07:32:36;;;;;;;;;;;14.70;87.40;;;;;;5058447;28;19935;-78
2022/05/09 07:35:05;;;;;;;;;;;15.00;87.10;;;;;;5054402;28;20002;-76
2022/05/09 07:37:31;;;;;;;;;;;;;;;;;;5051895;28;19936;-78
2022/05/09 07:39:58;;;;;;;;;;;14.80;83.10;;;;;;5058794;28;19960;-77
2022/05/09 07:42:25;;;;;;;;;;;15.00;83.80;;;;;;5057314;28;19936;-76
2022/05/09 07:44:52;;;;;;;;;;;15.00;85.10;;;;;;5059048;28;19933;-77
2022/05/09 07:47:18;;;;;;;;;;;14.90;84.10;;;;;;5054994;28;20002;-77
2022/05/09 07:49:45;;;;;;;;;;;14.90;88.10;;;;;;5056621;28;19934;-77
2022/05/09 07:52:13;;;;;;;;;;;14.90;87.10;;;;;;5061395;28;19948;-78
2022/05/09 07:54:39;;;;;;;;;;;15.20;87.80;;;;;;5061642;28;19978;-78
2022/05/09 07:57:06;;;;;;;;;;;16.20;87.40;;;;;;5054505;28;20335;-77
2022/05/09 07:59:33;;;;;;;;;;;15.00;82.30;;;;;;5058914;28;19933;-77
2022/05/09 08:01:59;;;;;;;;;;;15.20;83.10;;;;;;5062419;28;19932;-77
2022/05/09 08:04:26;;;;;;;;;;;15.00;84.60;;;;;;5058393;28;19933;-77
2022/05/09 08:06:52;;;;;;;;;;;15.50;89.70;;;;;;5053762;28;19935;-77
2022/05/09 08:09:20;;;;;;;;;;;15.10;83.80;;;;;;5056978;28;19929;-77
2022/05/09 08:11:47;;;;;;;;;;;15.10;84.30;;;;;;5055961;28;19949;-77
2022/05/09 08:14:13;;;;;;;;;;;15.00;80.40;;;;;;5051843;28;19932;-78
2022/05/09 08:16:40;;;;;;;;;;;15.70;85.10;;;;;;5052902;28;19936;-78
2022/05/09 08:19:07;;;;;;;;;;;;;;;;;;5055144;28;19928;-78
2022/05/09 08:21:36;;;;;;;;;;;15.30;86.90;;;;;;5055736;28;19947;-77
2022/05/09 08:24:02;;;;;;;;;;;15.70;88.70;;;;;;5057458;28;19933;-74
2022/05/09 08:26:31;;;;;;;;;;;15.40;86.20;;;;;;5058263;28;20063;-77
2022/05/09 08:28:57;;;;;;;;;;;15.40;91.20;;;;;;5057888;28;19928;-76
2022/05/09 08:31:24;;;;;;;;;;;15.40;88.80;;;;;;5055255;28;19933;-78
2022/05/09 08:33:51;;;;;;;;;;;16.10;84.70;;;;;;5056768;28;19969;-78
2022/05/09 08:36:45;;;;;;;;;;;15.90;87.20;;;;;;5053259;28;19928;-77
2022/05/09 08:39:11;;;;;;;;;;;;;;;;;;5055176;28;19928;-77
2022/05/09 08:41:46;;;;;;;;;;;15.60;89.20;;;;;;5052426;28;20314;-78
2022/05/09 08:44:19;;;;;;;;;;;15.60;88.90;;;;;;5059401;28;19932;-78
2022/05/09 08:46:50;;;;;;;;;;;15.70;86.50;;;;;;5053406;28;19929;-77
2022/05/09 08:49:17;;;;;;;;;;;;;;;;;;5054447;28;19940;-77
2022/05/09 08:51:48;;;;;;;;;;;16.10;90.60;;;;;;5053368;28;19933;-78
2022/05/09 08:54:18;;;;;;;;;;;15.80;78.50;;;;;;5054165;28;19939;-77
2022/05/09 08:56:47;;;;;;;;;;;15.80;79.20;;;;;;5049715;28;20671;-77
2022/05/09 08:59:18;;;;;;;;;;;15.80;78.00;;;;;;5054368;28;20108;-76
2022/05/09 09:01:48;;;;;;;;;;;16.00;88.60;;;;;;5063470;28;19955;-76
2022/05/09 09:04:18;;;;;;;;;;;16.70;86.50;;;;;;5062845;28;19974;-76
2022/05/09 09:06:52;;;;;;;;;;;16.00;88.30;;;;;;5058081;28;19932;-77
2022/05/09 09:09:27;;;;;;;;;;;16.60;79.70;;;;;;5060549;28;19959;-77
2022/05/09 09:11:54;;;;;;;;;;;;;;;;;;5053814;28;19989;-76
2022/05/09 09:14:27;;;;;;;;;;;16.30;90.30;;;;;;5060970;28;19940;-76
2022/05/09 09:17:02;;;;;;;;;;;16.40;81.80;;;;;;5057721;28;19967;-76
2022/05/09 09:19:41;;;;;;;;;;;16.50;93.10;;;;;;5060345;28;19928;-76
2022/05/09 09:22:08;;;;;;;;;;;;;;;;;;5054629;28;20413;-77
2022/05/09 09:24:35;;;;;;;;;;;;;;;;;;5060787;28;19949;-78
2022/05/09 09:27:01;;;;;;;;;;;;;;;;;;5057176;28;19944;-77
2022/05/09 09:29:32;;;;;;;;;;;16.40;75.90;;;;;;5053634;28;20367;-77
2022/05/09 09:31:59;;;;;;;;;;;;;;;;;;5058609;28;19979;-77
2022/05/09 09:34:28;;;;;;;;;;;16.90;91.30;;;;;;5054221;28;19957;-77
2022/05/09 09:36:57;;;;;;;;;;;16.90;85.80;;;;;;5055792;28;19965;-78
2022/05/09 09:39:26;;;;;;;;;;;16.90;74.40;;;;;;5063640;28;19928;-77
2022/05/09 09:41:55;;;;;;;;;;;16.90;75.10;;;;;;5058020;28;20550;-78
2022/05/09 09:44:23;;;;;;;;;;;16.90;75.30;;;;;;5057007;28;19925;-77
2022/05/09 09:47:02;;;;;;;;;;;17.00;75.30;;;;;;5059799;28;19951;-78
2022/05/09 09:49:28;;;;;;;;;;;17.00;74.40;;;;;;5065008;28;19928;-77
2022/05/09 09:51:57;;;;;;;;;;;17.00;75.00;;;;;;5064043;28;20525;-79
2022/05/09 09:54:26;;;;;;;;;;;17.10;75.00;;;;;;5063616;28;19935;-78
2022/05/09 09:56:52;;;;;;;;;;;17.20;75.00;;;;;;5058299;28;19932;-77
2022/05/09 09:59:21;;;;;;;;;;;17.30;73.90;;;;;;5059069;28;19928;-77
2022/05/09 10:02:03;;;;;;;;;;;17.30;74.50;;;;;;5063414;28;20400;-77
2022/05/09 10:04:30;;;;;;;;;;;17.40;74.40;;;;;;5060051;28;19967;-77
2022/05/09 10:06:59;;;;;;;;;;;17.50;74.10;;;;;;5062261;28;19928;-78
2022/05/09 10:09:26;;;;;;;;;;;17.60;73.10;;;;;;5056308;28;19997;-78
2022/05/09 10:11:53;;;;;;;;;;;17.60;73.70;;;;;;5060617;28;20036;-77
2022/05/09 10:14:31;;;;;;;;;;;17.70;73.60;;;;;;5053094;28;19929;-78
2022/05/09 10:17:12;;;;;;;;;;;17.80;73.30;;;;;;5057301;28;19939;-78
2022/05/09 10:19:40;;;;;;;;;;;17.90;72.50;;;;;;5057001;28;20321;-78
2022/05/09 10:24:57;;;;;;;;;;;18.00;72.80;;;;;;5060252;28;20395;-78
2022/05/09 10:27:27;;;;;;;;;;;18.10;72.40;;;;;;5055656;28;19945;-77
2022/05/09 10:29:56;;;;;;;;;;;18.20;71.50;;;;;;5062724;28;19929;-78
2022/05/09 10:32:24;;;;;;;;;;;18.20;72.00;;;;;;5058612;28;20406;-77
2022/05/09 10:34:55;;;;;;;;;;;18.30;72.50;;;;;;5056319;28;19936;-78
2022/05/09 10:37:25;;;;;;;;;;;18.40;71.60;;;;;;5060192;28;19928;-77
2022/05/09 10:39:54;;;;;;;;;;;18.50;70.60;;;;;;5052322;28;20027;-77
2022/05/09 10:42:26;;;;;;;;;;;18.60;71.30;;;;;;5059426;28;19944;-79
2022/05/09 10:44:59;;;;;;;;;;;18.60;71.00;;;;;;5059244;28;19940;-77
2022/05/09 10:47:27;;;;;;;;;;;18.80;70.10;;;;;;5060071;28;20331;-78
2022/05/09 10:50:05;;;;;;;;;;;18.90;69.90;;;;;;5054900;28;19935;-77
2022/05/09 10:52:41;;;;;;;;;;;18.90;71.20;;;;;;5065591;28;19932;-77
2022/05/09 10:55:12;;;;;;;;;;;18.90;70.10;;;;;;5060862;28;19933;-76
2022/05/09 10:57:40;;;;;;;;;;;19.00;69.80;;;;;;5059612;28;19935;-77
2022/05/09 11:00:09;;;;;;;;;;;19.10;69.00;;;;;;5052631;28;19929;-76
2022/05/09 11:02:37;;;;;;;;;;;19.20;69.50;;;;;;5058603;28;19928;-76
2022/05/09 11:05:06;;;;;;;;;;;19.20;69.30;;;;;;5056374;28;19932;-77
2022/05/09 11:07:34;;;;;;;;;;;19.30;69.20;;;;;;5058936;28;19929;-78
2022/05/09 11:10:05;;;;;;;;;;;19.50;69.10;;;;;;5060325;28;19928;-78
2022/05/09 11:12:41;;;;;;;;;;;19.50;68.80;;;;;;5058480;28;19932;-79
2022/05/09 11:15:13;;;;;;;;;;;19.60;68.20;;;;;;5058023;28;19929;-77
2022/05/09 11:17:50;;;;;;;;;;;19.70;67.90;;;;;;5068750;28;20379;-78
2022/05/09 11:20:22;;;;;;;;;;;19.80;67.40;;;;;;5056949;28;20003;-78
2022/05/09 11:22:53;;;;;;;;;;;19.80;67.50;;;;;;5049729;28;19928;-78
2022/05/09 11:25:28;;;;;;;;;;;19.90;67.70;;;;;;5059181;28;19936;-77
2022/05/09 11:28:04;;;;;;;;;;;20.00;67.10;;;;;;5058337;28;20419;-78
2022/05/09 11:30:32;;;;;;;;;;;20.00;67.00;;;;;;5060148;28;20517;-78
2022/05/09 11:33:17;;;;;;;;;;;20.10;66.70;;;;;;5060988;28;19955;-79
2022/05/09 11:35:45;;;;;;;;;;;20.20;66.60;;;;;;5058046;28;20436;-78
2022/05/09 11:38:24;;;;;;;;;;;20.30;66.30;;;;;;5054114;28;19928;-77
2022/05/09 11:40:56;;;;;;;;;;;20.30;66.20;;;;;;5055725;28;19928;-79
2022/05/09 11:43:32;;;;;;;;;;;20.40;65.60;;;;;;5052910;28;20019;-77
2022/05/09 11:46:05;;;;;;;;;;;20.50;65.40;;;;;;5056268;28;20459;-78
2022/05/09 11:48:36;;;;;;;;;;;20.50;65.30;;;;;;5055112;28;20411;-77
2022/05/09 11:51:07;;;;;;;;;;;20.60;65.10;;;;;;5048693;28;20124;-77
2022/05/09 11:53:38;;;;;;;;;;;20.70;64.90;;;;;;5062876;28;19928;-77
2022/05/09 11:56:07;;;;;;;;;;;20.80;64.50;;;;;;5063734;28;19935;-77
2022/05/09 11:58:35;;;;;;;;;;;20.80;64.00;;;;;;5063029;28;20013;-78
2022/05/09 12:01:01;;;;;;;;;;;20.90;63.60;;;;;;5061103;28;19928;-78
2022/05/09 12:03:43;;;;;;;;;;;20.90;63.70;;;;;;5061467;28;19929;-77
2022/05/09 12:06:27;;;;;;;;;;;21.00;63.50;;;;;;5039237;28;19935;-76
2022/05/09 12:08:56;;;;;;;;;;;21.00;63.40;;;;;;5057813;28;20518;-78
2022/05/09 12:11:27;;;;;;;;;;;21.10;63.00;;;;;;5060140;28;19931;-77
2022/05/09 12:13:55;;;;;;;;;;;21.20;62.50;;;;;;5053349;28;20451;-70
2022/05/09 12:16:42;;;;;;;;;;;21.30;62.60;;;;;;5057094;28;19935;-69
2022/05/09 12:19:13;;;;;;;;;;;21.30;63.10;;;;;;5051270;28;19932;-69
2022/05/09 12:21:41;;;;;;;;;;;21.40;62.20;;;;;;5052896;28;20032;-72
2022/05/09 12:24:23;;;;;;;;;;;21.50;62.20;;;;;;5051460;28;19929;-70
2022/05/09 12:26:51;;;;;;;;;;;21.50;61.80;;;;;;5052351;28;19935;-69
2022/05/09 12:29:44;;;;;;;;;;;21.60;61.00;;;;;;5050658;28;19944;-69
2022/05/09 12:32:11;;;;;;;;;;;21.60;61.10;;;;;;5030190;28;19929;-69
2022/05/09 12:34:38;;;;;;;;;;;21.70;61.00;;;;;;5056452;28;20749;-66
2022/05/09 12:37:07;;;;;;;;;;;21.70;60.70;;;;;;5052118;28;19932;-68
2022/05/09 12:39:36;;;;;;;;;;;21.80;60.30;;;;;;5057252;28;19939;-69
2022/05/09 12:42:05;;;;;;;;;;;21.80;60.30;;;;;;5053773;28;20410;-69
2022/05/09 12:44:34;;;;;;;;;;;21.90;60.20;;;;;;5062361;28;19931;-70
2022/05/09 12:47:02;;;;;;;;;;;22.00;59.80;;;;;;5055520;28;19929;-71
2022/05/09 12:49:34;;;;;;;;;;;22.00;59.80;;;;;;5054824;28;19929;-69
2022/05/09 12:52:01;;;;;;;;;;;22.10;59.80;;;;;;5057793;28;19924;-70
2022/05/09 12:54:30;;;;;;;;;;;22.10;59.70;;;;;;5055112;28;20029;-76
2022/05/09 12:56:59;;;;;;;;;;;22.20;59.70;;;;;;5057071;28;19932;-77
2022/05/09 12:59:26;;;;;;;;;;;22.20;59.60;;;;;;5055947;28;19940;-79
2022/05/09 13:01:55;;;;;;;;;;;22.30;58.60;;;;;;5057894;28;20006;-78
2022/05/09 13:04:23;;;;;;;;;;;22.30;58.60;;;;;;5060839;28;19928;-78
2022/05/09 13:06:51;;;;;;;;;;;22.40;59.00;;;;;;5054680;28;19983;-78
2022/05/09 13:09:20;;;;;;;;;;;22.40;58.90;;;;;;5048155;28;20414;-78
2022/05/09 13:11:49;;;;;;;;;;;22.50;58.60;;;;;;5053436;28;20208;-78
2022/05/09 13:14:18;;;;;;;;;;;22.60;58.60;;;;;;5050204;28;20467;-79
2022/05/09 13:16:52;;;;;;;;;;;22.60;58.60;;;;;;5055329;28;20026;-78
2022/05/09 13:19:20;;;;;;;;;;;22.70;58.50;;;;;;5052866;28;19933;-81
2022/05/09 13:21:48;;;;;;;;;;;22.70;58.30;;;;;;5057071;28;19936;-77
2022/05/09 13:24:16;;;;;;;;;;;22.80;58.20;;;;;;5052757;28;19986;-78
2022/05/09 13:26:46;;;;;;;;;;;22.80;58.20;;;;;;5054420;28;20402;-78
2022/05/09 13:29:21;;;;;;;;;;;22.90;58.90;;;;;;5053006;28;19928;-76
2022/05/09 13:31:48;;;;;;;;;;;22.90;58.20;;;;;;5056592;28;19932;-77
2022/05/09 13:34:20;;;;;;;;;;;23.00;58.00;;;;;;5056492;28;19929;-77
2022/05/09 13:36:46;;;;;;;;;;;23.10;58.00;;;;;;5052042;28;19971;-78
2022/05/09 13:39:25;;;;;;;;;;;23.20;57.70;;;;;;5057100;28;19951;-79
2022/05/09 13:41:51;;;;;;;;;;;23.20;58.10;;;;;;5048606;28;20424;-79
2022/05/09 13:44:22;;;;;;;;;;;23.20;57.30;;;;;;5055935;28;19925;-78
2022/05/09 13:46:49;;;;;;;;;;;23.30;57.30;;;;;;5062791;28;19936;-77
2022/05/09 13:49:17;;;;;;;;;;;23.40;57.20;;;;;;5055581;28;19935;-78
2022/05/09 13:51:52;;;;;;;;;;;23.40;57.20;;;;;;5060203;28;19933;-78
2022/05/09 13:54:21;;;;;;;;;;;23.50;56.90;;;;;;5061773;28;19932;-78
2022/05/09 13:56:48;;;;;;;;;;;23.60;56.70;;;;;;5064594;28;19924;-79
2022/05/09 13:59:17;;;;;;;;;;;23.60;56.60;;;;;;5061506;28;19968;-79
2022/05/09 14:01:46;;;;;;;;;;;23.70;56.40;;;;;;5058307;28;19941;-79
2022/05/09 14:04:16;;;;;;;;;;;23.80;56.00;;;;;;5058073;28;19929;-79
2022/05/09 14:06:44;;;;;;;;;;;23.80;55.80;;;;;;5060851;28;19932;-69
2022/05/09 14:09:15;;;;;;;;;;;23.90;55.80;;;;;;5060850;28;19967;-70
2022/05/09 14:11:52;;;;;;;;;;;24.00;55.60;;;;;;5057696;28;19931;-68
2022/05/09 14:14:33;;;;;;;;;;;24.00;55.60;;;;;;5056736;28;19958;-69
2022/05/09 14:17:02;;;;;;;;;;;24.10;55.60;;;;;;5059391;28;20478;-69
2022/05/09 14:19:29;;;;;;;;;;;24.10;55.20;;;;;;5061108;28;19970;-69
2022/05/09 14:22:03;;;;;;;;;;;24.20;55.00;;;;;;5056117;28;19935;-68
2022/05/09 14:24:30;;;;;;;;;;;24.30;54.80;;;;;;5060582;28;19933;-69
2022/05/09 14:29:49;;;;;;;;;;;24.40;54.30;;;;;;5057631;28;20074;-69
2022/05/09 14:32:35;;;;;;;;;;;24.50;54.40;;;;;;5059760;28;19936;-69
2022/05/09 14:35:02;;;;;;;;;;;24.50;53.80;;;;;;5061155;28;19960;-69
2022/05/09 14:37:33;;;;;;;;;;;24.60;53.80;;;;;;5060873;28;20243;-69
2022/05/09 14:40:14;;;;;;;;;;;24.70;53.50;;;;;;5051481;28;19929;-68
2022/05/09 14:42:48;;;;;;;;;;;24.90;51.30;;;;;;5053250;28;19928;-71
2022/05/09 14:45:17;;;;;;;;;;;25.30;50.40;;;;;;5050057;28;19929;-69